createdAt,value
2022-10-12T00:00:41.058Z,5.70
2022-10-12T00:03:09.097Z,5.70
2022-10-12T00:05:37.062Z,5.70
2022-10-12T00:08:06.640Z,5.80
2022-10-12T00:10:34.854Z,5.80
2022-10-12T00:13:02.856Z,5.90
2022-10-12T00:15:30.881Z,5.80
2022-10-12T00:17:58.898Z,5.80
2022-10-12T00:20:26.965Z,5.80
2022-10-12T00:22:54.966Z,5.80
2022-10-12T00:25:24.359Z,5.70
2022-10-12T00:27:52.405Z,5.70
2022-10-12T00:30:20.462Z,5.70
2022-10-12T00:32:48.475Z,5.80
2022-10-12T00:35:16.630Z,5.80
2022-10-12T00:37:44.656Z,5.80
2022-10-12T00:40:13.565Z,5.70
2022-10-12T00:42:42.924Z,5.70
2022-10-12T00:45:11.335Z,5.70
2022-10-12T00:47:43.598Z,5.70
2022-10-12T00:50:18.708Z,5.80
2022-10-12T00:52:50.953Z,5.70
2022-10-12T00:55:21.822Z,5.80
2022-10-12T00:57:54.385Z,5.70
2022-10-12T01:00:23.178Z,5.80
2022-10-12T01:02:54.059Z,5.70
2022-10-12T01:05:23.475Z,5.60
2022-10-12T01:07:51.794Z,5.70
2022-10-12T01:10:20.160Z,5.70
2022-10-12T01:12:50.855Z,5.60
2022-10-12T01:15:18.981Z,5.50
2022-10-12T01:17:58.440Z,5.40
2022-10-12T01:20:59.863Z,5.30
2022-10-12T01:24:04.448Z,5.50
2022-10-12T01:26:53.201Z,5.40
2022-10-12T01:29:40.243Z,5.50
2022-10-12T01:32:15.610Z,5.50
2022-10-12T01:34:49.193Z,5.40
2022-10-12T01:37:22.420Z,5.50
2022-10-12T01:39:54.837Z,5.40
2022-10-12T01:42:26.908Z,5.40
2022-10-12T01:45:03.351Z,5.40
2022-10-12T01:47:33.991Z,5.40
2022-10-12T01:50:03.757Z,5.30
2022-10-12T01:52:33.684Z,5.30
2022-10-12T01:55:27.882Z,5.30
2022-10-12T01:58:21.474Z,5.40
2022-10-12T02:00:57.973Z,5.50
2022-10-12T02:03:34.850Z,5.50
2022-10-12T02:06:05.093Z,5.40
2022-10-12T02:08:36.273Z,5.30
2022-10-12T02:11:08.878Z,5.40
2022-10-12T02:13:41.041Z,5.40
2022-10-12T02:16:13.442Z,5.40
2022-10-12T02:18:47.614Z,5.20
2022-10-12T02:21:19.813Z,5.20
2022-10-12T02:23:51.157Z,5.20
2022-10-12T02:26:20.534Z,5.30
2022-10-12T02:28:50.623Z,5.40
2022-10-12T02:31:26.025Z,5.50
2022-10-12T02:34:01.742Z,5.40
2022-10-12T02:36:37.370Z,5.30
2022-10-12T02:39:10.567Z,5.40
2022-10-12T02:41:43.081Z,5.40
2022-10-12T02:44:14.797Z,5.40
2022-10-12T02:46:44.184Z,5.30
2022-10-12T02:49:15.355Z,5.20
2022-10-12T02:51:44.801Z,5.10
2022-10-12T02:54:14.070Z,5.00
2022-10-12T02:56:45.208Z,5.00
2022-10-12T02:59:13.430Z,5.00
2022-10-12T03:01:41.826Z,5.10
2022-10-12T03:04:10.199Z,5.10
2022-10-12T03:06:39.890Z,5.20
2022-10-12T03:09:07.882Z,5.20
2022-10-12T03:11:37.615Z,5.20
2022-10-12T03:14:05.966Z,5.20
2022-10-12T03:16:33.958Z,5.30
2022-10-12T03:19:01.949Z,5.30
2022-10-12T03:21:29.961Z,5.30
2022-10-12T03:23:59.373Z,5.30
2022-10-12T03:26:27.587Z,5.40
2022-10-12T03:28:55.692Z,5.40
2022-10-12T03:31:23.824Z,5.40
2022-10-12T03:33:51.973Z,5.40
2022-10-12T03:36:19.999Z,5.40
2022-10-12T03:38:47.992Z,5.30
2022-10-12T03:41:17.324Z,5.30
2022-10-12T03:43:45.294Z,5.20
2022-10-12T03:46:13.823Z,5.10
2022-10-12T03:48:41.936Z,5.10
2022-10-12T03:51:09.917Z,5.20
2022-10-12T03:53:41.767Z,5.20
2022-10-12T03:56:13.167Z,5.30
2022-10-12T03:58:42.588Z,5.30
2022-10-12T04:01:11.259Z,5.20
2022-10-12T04:03:39.323Z,5.20
2022-10-12T04:06:07.997Z,5.30
2022-10-12T04:08:36.035Z,5.30
2022-10-12T04:11:04.110Z,5.30
2022-10-12T04:13:32.182Z,5.30
2022-10-12T04:16:05.188Z,5.30
2022-10-12T04:18:33.253Z,5.30
2022-10-12T04:21:01.603Z,5.40
2022-10-12T04:23:29.826Z,5.50
2022-10-12T04:25:57.808Z,5.50
2022-10-12T04:28:25.877Z,5.50
2022-10-12T04:30:53.909Z,5.60
2022-10-12T04:33:23.305Z,5.60
2022-10-12T04:35:51.282Z,5.60
2022-10-12T04:38:19.505Z,5.60
2022-10-12T04:40:48.650Z,5.60
2022-10-12T04:43:17.574Z,5.70
2022-10-12T04:45:45.686Z,5.70
2022-10-12T04:48:13.705Z,5.60
2022-10-12T04:50:44.070Z,5.50
2022-10-12T04:53:12.163Z,5.30
2022-10-12T04:55:40.145Z,5.40
2022-10-12T04:58:08.222Z,5.40
2022-10-12T05:00:36.273Z,5.40
2022-10-12T05:03:04.626Z,5.40
2022-10-12T05:05:34.294Z,5.40
2022-10-12T05:08:04.020Z,5.30
2022-10-12T05:10:32.449Z,5.20
2022-10-12T05:13:00.469Z,5.20
2022-10-12T05:15:28.545Z,5.10
2022-10-12T05:17:56.643Z,5.00
2022-10-12T05:20:24.642Z,4.90
2022-10-12T05:22:52.689Z,4.70
2022-10-12T05:25:22.091Z,4.70
2022-10-12T05:27:50.077Z,4.80
2022-10-12T05:30:18.914Z,4.70
2022-10-12T05:32:46.966Z,4.80
2022-10-12T05:35:15.069Z,4.70
2022-10-12T05:37:43.156Z,4.80
2022-10-12T05:40:12.132Z,4.80
2022-10-12T05:42:41.671Z,4.70
2022-10-12T05:45:12.853Z,4.70
2022-10-12T05:47:42.060Z,4.50
2022-10-12T05:50:10.710Z,4.50
2022-10-12T05:52:38.946Z,4.50
2022-10-12T05:55:08.269Z,4.50
2022-10-12T05:57:36.602Z,4.50
2022-10-12T06:00:08.546Z,4.60
2022-10-12T06:02:39.940Z,4.60
2022-10-12T06:05:08.739Z,4.60
2022-10-12T06:07:36.764Z,4.70
2022-10-12T06:10:05.363Z,4.70
2022-10-12T06:12:34.091Z,4.70
2022-10-12T06:15:02.141Z,4.80
2022-10-12T06:17:31.578Z,4.80
2022-10-12T06:19:59.541Z,4.90
2022-10-12T06:22:27.546Z,5.00
2022-10-12T06:24:55.664Z,4.90
2022-10-12T06:27:24.002Z,5.10
2022-10-12T06:29:52.004Z,5.40
2022-10-12T06:32:20.031Z,5.50
2022-10-12T06:34:49.439Z,5.60
2022-10-12T06:37:44.466Z,5.70
2022-10-12T06:40:06.625Z,5.90
2022-10-12T06:42:34.584Z,5.90
2022-10-12T06:45:02.627Z,6.00
2022-10-12T06:47:30.625Z,6.10
2022-10-12T06:49:59.994Z,6.10
2022-10-12T06:52:28.054Z,6.20
2022-10-12T06:54:56.029Z,6.40
2022-10-12T06:57:24.052Z,6.50
2022-10-12T06:59:52.107Z,6.80
2022-10-12T07:02:20.128Z,6.90
2022-10-12T07:04:51.202Z,7.20
2022-10-12T07:07:20.826Z,7.50
2022-10-12T07:09:48.919Z,7.90
2022-10-12T07:12:16.919Z,9.50
2022-10-12T07:14:44.945Z,9.70
2022-10-12T07:17:12.951Z,9.10
2022-10-12T07:19:40.943Z,8.80
2022-10-12T07:22:09.156Z,8.50
2022-10-12T07:24:38.506Z,9.20
2022-10-12T07:27:09.779Z,8.60
2022-10-12T07:29:39.120Z,8.50
2022-10-12T07:32:08.186Z,8.30
2022-10-12T07:34:36.387Z,8.20
2022-10-12T07:37:04.449Z,8.30
2022-10-12T07:39:32.618Z,8.40
2022-10-12T07:42:01.970Z,8.50
2022-10-12T07:44:30.551Z,8.60
2022-10-12T07:46:58.579Z,8.70
2022-10-12T07:49:26.618Z,8.80
2022-10-12T07:51:54.635Z,8.80
2022-10-12T07:54:28.375Z,8.80
2022-10-12T07:56:57.714Z,8.80
2022-10-12T07:59:27.332Z,8.80
2022-10-12T08:01:55.454Z,8.80
2022-10-12T08:04:23.476Z,8.90
2022-10-12T08:06:51.476Z,8.90
2022-10-12T08:09:19.534Z,9.00
2022-10-12T08:11:47.588Z,9.00
2022-10-12T08:14:17.454Z,9.00
2022-10-12T08:16:46.859Z,9.10
2022-10-12T08:19:15.174Z,9.20
2022-10-12T08:21:43.525Z,9.10
2022-10-12T08:24:11.990Z,9.30
2022-10-12T08:26:40.242Z,9.50
2022-10-12T08:29:09.251Z,9.70
2022-10-12T08:31:37.624Z,9.80
2022-10-12T08:34:07.125Z,10.20
2022-10-12T08:36:35.345Z,10.40
2022-10-12T08:39:06.693Z,10.60
2022-10-12T08:41:48.097Z,11.00
2022-10-12T08:44:46.173Z,11.20
2022-10-12T08:47:18.522Z,11.00
2022-10-12T08:49:50.271Z,11.00
2022-10-12T08:52:29.405Z,11.10
2022-10-12T08:55:01.653Z,11.20
2022-10-12T08:57:29.775Z,11.40
2022-10-12T08:59:57.897Z,11.00
2022-10-12T09:02:41.193Z,11.10
2022-10-12T09:05:16.071Z,10.80
2022-10-12T09:07:50.527Z,10.80
2022-10-12T09:10:34.266Z,10.80
2022-10-12T09:13:11.098Z,11.00
2022-10-12T09:15:43.905Z,11.10
2022-10-12T09:18:19.343Z,11.00
2022-10-12T09:20:51.135Z,11.20
2022-10-12T09:23:25.225Z,11.30
2022-10-12T09:25:55.878Z,11.10
2022-10-12T09:28:29.768Z,11.20
2022-10-12T09:31:08.372Z,11.20
2022-10-12T09:33:45.319Z,11.40
2022-10-12T09:36:20.585Z,11.60
2022-10-12T09:38:49.199Z,11.80
2022-10-12T09:41:21.986Z,11.70
2022-10-12T09:43:53.305Z,12.20
2022-10-12T09:46:27.659Z,12.70
2022-10-12T09:48:59.702Z,12.90
2022-10-12T09:51:30.962Z,13.30
2022-10-12T09:54:03.389Z,13.30
2022-10-12T09:56:39.732Z,13.60
2022-10-12T09:59:18.611Z,13.90
2022-10-12T10:01:59.147Z,15.20
2022-10-12T10:04:29.711Z,15.40
2022-10-12T10:07:15.097Z,14.70
2022-10-12T10:09:43.173Z,15.00
2022-10-12T10:12:22.706Z,15.80
2022-10-12T10:14:51.703Z,17.10
2022-10-12T10:17:26.276Z,18.10
2022-10-12T10:19:55.871Z,18.20
2022-10-12T10:22:25.582Z,18.30
2022-10-12T10:24:59.777Z,17.90
2022-10-12T10:27:32.703Z,17.30
2022-10-12T10:30:32.588Z,17.60
2022-10-12T10:33:14.755Z,18.00
2022-10-12T10:35:58.652Z,18.20
2022-10-12T10:38:31.177Z,19.40
2022-10-12T10:41:00.771Z,19.20
2022-10-12T10:43:31.544Z,19.50
2022-10-12T10:46:02.004Z,19.90
2022-10-12T10:48:33.258Z,20.70
2022-10-12T10:51:03.818Z,20.80
2022-10-12T10:53:46.843Z,20.50
2022-10-12T10:56:18.173Z,20.90
2022-10-12T10:58:48.497Z,20.90
2022-10-12T11:01:20.598Z,21.40
2022-10-12T11:03:56.312Z,21.50
2022-10-12T11:06:34.584Z,21.40
2022-10-12T11:09:08.481Z,21.30
2022-10-12T11:11:38.378Z,21.30
2022-10-12T11:14:15.453Z,21.20
2022-10-12T11:16:47.197Z,21.70
2022-10-12T11:19:29.763Z,21.90
2022-10-12T11:22:01.447Z,21.80
2022-10-12T11:24:36.904Z,20.80
2022-10-12T11:27:09.650Z,20.80
2022-10-12T11:29:38.746Z,20.20
2022-10-12T11:32:12.934Z,20.20
2022-10-12T11:34:49.459Z,20.20
2022-10-12T11:37:21.341Z,20.40
2022-10-12T11:39:53.597Z,20.40
2022-10-12T11:42:30.180Z,20.80
2022-10-12T11:45:00.619Z,21.30
2022-10-12T11:47:35.653Z,20.70
2022-10-12T11:50:08.358Z,20.90
2022-10-12T11:52:40.759Z,21.30
2022-10-12T11:55:33.476Z,22.50
2022-10-12T11:58:12.033Z,22.30
2022-10-12T12:00:56.276Z,21.10
2022-10-12T12:03:31.545Z,21.20
2022-10-12T12:06:40.645Z,21.20
2022-10-12T12:09:23.198Z,20.60
2022-10-12T12:11:52.594Z,19.30
2022-10-12T12:14:43.130Z,19.20
2022-10-12T12:17:16.209Z,18.20
2022-10-12T12:19:46.204Z,18.90
2022-10-12T12:22:50.019Z,18.60
2022-10-12T12:25:21.926Z,18.40
2022-10-12T12:27:53.526Z,18.30
2022-10-12T12:30:37.682Z,18.90
2022-10-12T12:33:26.584Z,18.50
2022-10-12T12:35:57.991Z,19.50
2022-10-12T12:38:28.673Z,19.80
2022-10-12T12:41:08.911Z,19.40
2022-10-12T12:44:04.035Z,19.50
2022-10-12T12:47:39.815Z,18.90
2022-10-12T12:50:00.778Z,18.40
2022-10-12T12:52:31.189Z,19.50
2022-10-12T12:55:34.854Z,20.30
2022-10-12T12:58:17.790Z,20.60
2022-10-12T13:00:56.427Z,19.40
2022-10-12T13:04:09.409Z,18.30
2022-10-12T13:07:10.730Z,18.30
2022-10-12T13:09:59.506Z,18.30
2022-10-12T13:12:45.198Z,18.00
2022-10-12T13:15:26.614Z,17.90
2022-10-12T13:18:23.087Z,18.00
2022-10-12T13:20:56.956Z,17.80
2022-10-12T13:23:28.175Z,18.20
2022-10-12T13:26:01.969Z,17.90
2022-10-12T13:28:32.317Z,17.50
2022-10-12T13:31:03.333Z,17.40
2022-10-12T13:33:37.685Z,17.40
2022-10-12T13:36:08.569Z,17.30
2022-10-12T13:38:38.475Z,17.10
2022-10-12T13:41:09.629Z,16.70
2022-10-12T13:43:45.304Z,16.80
2022-10-12T13:46:14.902Z,16.60
2022-10-12T13:49:04.944Z,16.30
2022-10-12T13:51:32.963Z,16.60
2022-10-12T13:54:01.038Z,16.80
2022-10-12T13:56:30.910Z,16.90
2022-10-12T13:59:04.223Z,17.00
2022-10-12T14:01:35.471Z,17.10
2022-10-12T14:04:06.307Z,17.10
2022-10-12T14:06:37.898Z,16.80
2022-10-12T14:09:10.393Z,16.70
2022-10-12T14:11:39.211Z,16.80
2022-10-12T14:14:10.852Z,16.60
2022-10-12T14:16:38.946Z,16.70
2022-10-12T14:19:21.899Z,16.50
2022-10-12T14:21:50.613Z,16.50
2022-10-12T14:24:20.290Z,16.50
2022-10-12T14:26:55.815Z,16.30
2022-10-12T14:29:29.965Z,16.50
2022-10-12T14:31:59.861Z,16.40
2022-10-12T14:34:46.532Z,16.50
2022-10-12T14:37:30.596Z,16.60
2022-10-12T14:40:02.483Z,16.60
2022-10-12T14:42:35.046Z,16.70
2022-10-12T14:45:05.666Z,16.70
2022-10-12T14:47:38.545Z,16.80
2022-10-12T14:50:10.269Z,16.80
2022-10-12T14:52:43.250Z,16.70
2022-10-12T14:55:16.565Z,16.70
2022-10-12T14:57:44.851Z,16.60
2022-10-12T15:00:15.641Z,16.60
2022-10-12T15:02:44.758Z,16.80
2022-10-12T15:05:16.097Z,16.90
2022-10-12T15:07:44.569Z,16.90
2022-10-12T15:10:12.557Z,16.60
2022-10-12T15:12:42.021Z,16.50
2022-10-12T15:15:24.273Z,16.30
2022-10-12T15:17:56.056Z,16.30
2022-10-12T15:20:25.478Z,16.20
2022-10-12T15:22:53.505Z,16.10
2022-10-12T15:25:24.917Z,16.10
2022-10-12T15:27:53.266Z,16.00
2022-10-12T15:30:21.586Z,15.90
2022-10-12T15:32:49.636Z,15.90
2022-10-12T15:35:22.198Z,15.80
2022-10-12T15:37:51.900Z,15.60
2022-10-12T15:40:21.522Z,15.50
2022-10-12T15:42:49.811Z,15.50
2022-10-12T15:45:22.850Z,15.40
2022-10-12T15:47:51.874Z,15.40
2022-10-12T15:50:22.114Z,15.40
2022-10-12T15:52:52.627Z,15.30
2022-10-12T15:55:22.365Z,15.20
2022-10-12T15:57:51.535Z,15.10
2022-10-12T16:00:21.688Z,14.90
2022-10-12T16:02:50.242Z,14.90
2022-10-12T16:05:21.895Z,15.00
2022-10-12T16:07:52.067Z,15.00
2022-10-12T16:10:22.639Z,14.80
2022-10-12T16:12:52.303Z,14.70
2022-10-12T16:15:22.414Z,14.60
2022-10-12T16:17:50.943Z,14.50
2022-10-12T16:20:19.337Z,14.40
2022-10-12T16:22:48.083Z,14.30
2022-10-12T16:25:21.443Z,14.20
2022-10-12T16:27:49.895Z,14.20
2022-10-12T16:30:18.393Z,14.10
2022-10-12T16:32:46.402Z,14.00
2022-10-12T16:35:15.446Z,13.80
2022-10-12T16:37:43.762Z,13.70
2022-10-12T16:40:12.821Z,13.60
2022-10-12T16:42:42.241Z,13.50
2022-10-12T16:45:11.397Z,13.40
2022-10-12T16:47:42.697Z,13.30
2022-10-12T16:50:11.745Z,13.20
2022-10-12T16:52:40.097Z,13.10
2022-10-12T16:55:09.026Z,13.10
2022-10-12T16:57:37.945Z,12.90
2022-10-12T17:00:10.478Z,12.90
2022-10-12T17:02:38.832Z,12.80
2022-10-12T17:05:07.443Z,12.80
2022-10-12T17:07:35.451Z,12.70
2022-10-12T17:10:03.538Z,12.80
2022-10-12T17:12:31.503Z,12.70
2022-10-12T17:14:59.494Z,12.70
2022-10-12T17:17:28.885Z,12.70
2022-10-12T17:19:57.038Z,12.60
2022-10-12T17:22:25.103Z,12.60
2022-10-12T17:24:53.259Z,12.50
2022-10-12T17:27:21.281Z,12.50
2022-10-12T17:29:49.284Z,12.40
2022-10-12T17:32:17.800Z,12.30
2022-10-12T17:34:48.839Z,12.10
2022-10-12T17:37:17.101Z,12.00
2022-10-12T17:39:48.235Z,12.00
2022-10-12T17:42:16.730Z,11.90
2022-10-12T17:44:45.043Z,11.80
2022-10-12T17:47:13.072Z,11.90
2022-10-12T17:49:41.137Z,11.90
2022-10-12T17:52:11.888Z,11.90
2022-10-12T17:54:40.138Z,11.80
2022-10-12T17:57:08.130Z,11.70
2022-10-12T17:59:36.138Z,11.60
2022-10-12T18:02:09.198Z,11.50
2022-10-12T18:04:37.629Z,11.40
2022-10-12T18:07:05.641Z,11.30
2022-10-12T18:09:35.112Z,11.30
2022-10-12T18:12:03.094Z,11.20
2022-10-12T18:14:31.114Z,11.30
2022-10-12T18:16:59.448Z,11.10
2022-10-12T18:19:27.426Z,11.00
2022-10-12T18:21:55.427Z,10.90
2022-10-12T18:24:23.574Z,10.80
2022-10-12T18:26:53.375Z,10.70
2022-10-12T18:29:22.523Z,10.80
2022-10-12T18:31:50.538Z,10.70
2022-10-12T18:34:18.509Z,10.70
2022-10-12T18:36:46.649Z,10.70
2022-10-12T18:39:15.128Z,10.60
2022-10-12T18:41:43.149Z,10.50
2022-10-12T18:44:14.915Z,10.40
2022-10-12T18:46:42.954Z,10.30
2022-10-12T18:49:12.457Z,10.30
2022-10-12T18:51:41.999Z,10.20
2022-10-12T18:54:13.887Z,10.10
2022-10-12T18:56:42.888Z,10.00
2022-10-12T18:59:17.380Z,10.00
2022-10-12T19:01:46.299Z,10.00
2022-10-12T19:04:14.419Z,10.10
2022-10-12T19:06:43.322Z,10.10
2022-10-12T19:09:13.621Z,10.00
2022-10-12T19:11:41.709Z,10.10
2022-10-12T19:14:14.679Z,10.20
2022-10-12T19:16:43.995Z,10.30
2022-10-12T19:19:19.732Z,10.10
2022-10-12T19:21:49.399Z,9.90
2022-10-12T19:24:18.044Z,9.80
2022-10-12T19:26:46.194Z,9.70
2022-10-12T19:29:15.954Z,9.70
2022-10-12T19:31:46.067Z,9.80
2022-10-12T19:34:16.427Z,9.90
2022-10-12T19:36:45.050Z,10.10
2022-10-12T19:39:15.186Z,10.30
2022-10-12T19:41:43.246Z,10.40
2022-10-12T19:44:12.524Z,10.40
2022-10-12T19:46:42.778Z,10.30
2022-10-12T19:49:13.566Z,10.20
2022-10-12T19:51:41.750Z,10.30
2022-10-12T19:54:13.258Z,10.20
2022-10-12T19:56:41.226Z,10.10
2022-10-12T19:59:09.298Z,9.90
2022-10-12T20:01:39.088Z,9.80
2022-10-12T20:04:11.889Z,9.90
2022-10-12T20:06:39.950Z,9.90
2022-10-12T20:09:09.126Z,9.80
2022-10-12T20:11:38.282Z,9.90
2022-10-12T20:14:06.648Z,9.80
2022-10-12T20:16:35.655Z,9.90
2022-10-12T20:19:04.662Z,9.80
2022-10-12T20:21:36.152Z,9.90
2022-10-12T20:24:04.326Z,9.90
2022-10-12T20:26:32.626Z,9.80
2022-10-12T20:29:02.003Z,9.80
2022-10-12T20:31:30.000Z,9.80
2022-10-12T20:33:58.291Z,9.80
2022-10-12T20:36:28.411Z,9.90
2022-10-12T20:38:58.533Z,9.80
2022-10-12T20:41:27.585Z,9.90
2022-10-12T20:43:57.189Z,9.80
2022-10-12T20:46:26.085Z,9.80
2022-10-12T20:48:58.907Z,9.70
2022-10-12T20:51:29.605Z,9.60
2022-10-12T20:54:00.851Z,9.60
2022-10-12T20:56:29.133Z,9.70
2022-10-12T20:58:57.465Z,9.80
2022-10-12T21:01:26.873Z,9.80
2022-10-12T21:03:55.391Z,9.80
2022-10-12T21:06:25.022Z,9.70
2022-10-12T21:08:54.890Z,9.70
2022-10-12T21:11:25.345Z,9.70
2022-10-12T21:13:53.644Z,9.70
2022-10-12T21:16:21.722Z,9.80
2022-10-12T21:18:49.886Z,9.80
2022-10-12T21:21:19.587Z,10.00
2022-10-12T21:23:56.743Z,10.00
2022-10-12T21:26:28.083Z,10.10
2022-10-12T21:28:56.238Z,10.10
2022-10-12T21:31:28.211Z,10.10
2022-10-12T21:33:59.931Z,10.20
2022-10-12T21:36:28.562Z,10.20
2022-10-12T21:38:56.586Z,10.30
2022-10-12T21:41:27.317Z,10.30
2022-10-12T21:43:56.650Z,10.30
2022-10-12T21:46:26.357Z,10.20
2022-10-12T21:48:55.072Z,10.20
2022-10-12T21:51:24.558Z,10.30
2022-10-12T21:53:53.101Z,10.30
2022-10-12T21:56:23.854Z,10.30
2022-10-12T21:58:57.277Z,10.30
2022-10-12T22:01:27.414Z,10.30
2022-10-12T22:03:57.806Z,10.30
2022-10-12T22:06:28.514Z,10.30
2022-10-12T22:08:59.549Z,10.20
2022-10-12T22:11:29.176Z,10.30
2022-10-12T22:14:01.147Z,10.30
2022-10-12T22:16:30.157Z,10.30
2022-10-12T22:18:58.785Z,10.30
2022-10-12T22:21:33.632Z,10.20
2022-10-12T22:24:02.498Z,10.30
2022-10-12T22:26:30.590Z,10.40
2022-10-12T22:29:01.070Z,10.50
2022-10-12T22:31:29.218Z,10.50
2022-10-12T22:33:57.690Z,10.50
2022-10-12T22:36:25.981Z,10.50
2022-10-12T22:38:54.075Z,10.40
2022-10-12T22:41:23.946Z,10.50
2022-10-12T22:43:53.996Z,10.60
2022-10-12T22:46:25.076Z,10.50
2022-10-12T22:48:53.870Z,10.50
2022-10-12T22:51:31.977Z,10.60
2022-10-12T22:54:00.282Z,10.60
2022-10-12T22:56:28.605Z,10.60
2022-10-12T22:58:57.759Z,10.60
2022-10-12T23:01:27.601Z,10.50
2022-10-12T23:03:55.955Z,10.50
2022-10-12T23:06:24.183Z,10.50
2022-10-12T23:08:52.690Z,10.50
2022-10-12T23:11:22.576Z,10.40
2022-10-12T23:13:50.570Z,10.30
2022-10-12T23:16:21.288Z,10.30
2022-10-12T23:18:58.798Z,10.30
2022-10-12T23:21:29.097Z,10.30
2022-10-12T23:23:58.661Z,10.40
2022-10-12T23:26:27.172Z,10.40
2022-10-12T23:28:55.638Z,10.40
2022-10-12T23:31:26.180Z,10.30
2022-10-12T23:33:58.511Z,10.30
2022-10-12T23:36:26.853Z,10.30
2022-10-12T23:38:54.944Z,10.40
2022-10-12T23:41:23.021Z,10.40
2022-10-12T23:43:51.122Z,10.40
2022-10-12T23:46:19.071Z,10.30
2022-10-12T23:48:47.193Z,10.30
2022-10-12T23:51:16.568Z,10.30
2022-10-12T23:53:44.809Z,10.30
2022-10-12T23:56:12.895Z,10.30
2022-10-12T23:58:41.394Z,10.30
